Terminal Aerodrome Forecast
Issued by NWS

Home | Current Version | Previous Version | Text Only | Print | Product List | Glossary Off
Versions: 1 2 3 4 5 6 7 8 9 10 11 12 13 14 15

000
FTUS43 KTOP 231700
TAFMHK
TAF
KMHK 231720Z 2318/2418 17013KT P6SM VCTS SCT030 BKN070CB
     FM232000 17014G20KT P6SM SCT050 BKN100
     FM240000 16010KT P6SM SCT050 BKN120
     FM241500 17015G23KT P6SM SCT040 BKN080=

USA.gov is the U.S. government's official web portal to all federal, state and local government web resources and services.